WARNING - Change wsUserSettings.php: $SITE["topfolder"] from : weather2/ to: ./

Leobendorf more information Leobendorf


Thunder radar more information blitzortung!


Rain radar  rain snow radar


Besuchen Sie unsere anderen Wetter Stationen:

Template documentation
and downloads

And another site



Extrem hohe Temperatur Gültig von: 26-06-2017 23:00 bis: 27-06-2017 22:59 Warnung für: Extrem hohe Temperatur Gefahrenstufe: Orange info button
deutsch:
Es ist mit starker Hitzebelastung zu rechnen.

english:
Severe heat stress must be expected. 

Weather Underground History Seite Text

Tägliche Zusammenfassung für Juni 26, 2017 Einheiten:  metrisch    Englisch   Beide
« Vorherige Tag
nächste Tag »
Tägliche Wöchentliche Monatliche Jährlich Custom
  aktuell: Hoch: Wenig: Durchchnittswerte:
Temperatur: 26.6 °C 27.7 °C 17.1 °C 20.9 °C
Taupunkt: 15.6 °C 17.8 °C 14.7 °C 16.5 °C
Luftfeuchte: 51 % 92 % 47 % 78 %
Windgeschwindigkeit: 11.3 km/h 17.7 km/h 0.0 km/h 7.2 km/h
Windböen: 22.5 km/h 24.1 km/h - -
Wind:SW - - West
Luftdruck: 1010.4 hPa 1011.7 hPa 1010.4 hPa -
Niederschlag: 0.0 mm      
Historical Graphs
 
 
Tabular Data für Juni 26, 2017
Zeit Temperatur Taupunkt Luftdruck Wind Windgeschwindigkeit Windböen Luftfeuchte Niederschlag Rate (pro Stunde)
00:03 18.3 °C 17.0 °C 1011.7 hPa NW 6.4 km/h 9.7 km/h 92 % 0.0 mm
00:08 18.3 °C 17.0 °C 1011.7 hPa WNW 8.0 km/h 8.0 km/h 92 % 0.0 mm
00:13 18.3 °C 17.0 °C 1011.7 hPa WNW 8.0 km/h 9.7 km/h 92 % 0.0 mm
00:18 18.3 °C 17.0 °C 1011.7 hPa WNW 6.4 km/h 11.3 km/h 92 % 0.0 mm
00:21 18.3 °C 17.0 °C 1011.7 hPa WNW 8.0 km/h 11.3 km/h 92 % 0.0 mm
00:26 18.4 °C 17.1 °C 1011.7 hPa NW 8.0 km/h 11.3 km/h 92 % 0.0 mm
00:31 18.4 °C 17.1 °C 1011.7 hPa WSW 8.0 km/h 11.3 km/h 92 % 0.0 mm
00:36 18.4 °C 17.1 °C 1011.7 hPa WNW 6.4 km/h 14.5 km/h 92 % 0.0 mm
00:41 18.4 °C 17.1 °C 1011.7 hPa WNW 11.3 km/h 14.5 km/h 92 % 0.0 mm
00:46 18.4 °C 17.1 °C 1011.7 hPa West 8.0 km/h 12.9 km/h 92 % 0.0 mm
00:51 18.4 °C 17.1 °C 1011.7 hPa West 12.9 km/h 20.9 km/h 92 % 0.0 mm
00:56 18.4 °C 17.1 °C 1011.7 hPa WNW 6.4 km/h 20.9 km/h 92 % 0.0 mm
00:58 18.4 °C 17.1 °C 1011.7 hPa WNW 6.4 km/h 20.9 km/h 92 % 0.0 mm
01:03 18.5 °C 17.0 °C 1011.7 hPa West 6.4 km/h 20.9 km/h 91 % 0.0 mm
01:08 18.6 °C 17.1 °C 1011.7 hPa West 9.7 km/h 20.9 km/h 91 % 0.0 mm
01:14 18.6 °C 17.1 °C 1011.7 hPa West 3.2 km/h 16.1 km/h 91 % 0.0 mm
01:19 18.6 °C 17.1 °C 1011.7 hPa WNW 6.4 km/h 14.5 km/h 91 % 0.0 mm
01:24 18.6 °C 16.9 °C 1011.7 hPa WNW 8.0 km/h 14.5 km/h 90 % 0.0 mm
01:29 18.6 °C 16.9 °C 1011.7 hPa WNW 6.4 km/h 14.5 km/h 90 % 0.0 mm
01:34 18.6 °C 16.9 °C 1011.7 hPa WNW 8.0 km/h 16.1 km/h 90 % 0.0 mm
01:39 18.6 °C 16.9 °C 1011.7 hPa NW 9.7 km/h 16.1 km/h 90 % 0.0 mm
01:44 18.6 °C 16.9 °C 1011.7 hPa West 4.8 km/h 14.5 km/h 90 % 0.0 mm
01:49 18.6 °C 16.9 °C 1011.4 hPa WNW 8.0 km/h 12.9 km/h 90 % 0.0 mm
01:54 18.5 °C 16.8 °C 1011.7 hPa WNW 3.2 km/h 16.1 km/h 90 % 0.0 mm
01:59 18.4 °C 16.7 °C 1011.7 hPa WNW 4.8 km/h 16.1 km/h 90 % 0.0 mm
02:04 18.4 °C 16.7 °C 1011.7 hPa NW 6.4 km/h 16.1 km/h 90 % 0.0 mm
02:09 18.3 °C 16.6 °C 1011.4 hPa WNW 6.4 km/h 12.9 km/h 90 % 0.0 mm
02:14 18.3 °C 16.6 °C 1011.7 hPa NW 11.3 km/h 12.9 km/h 90 % 0.0 mm
02:19 18.3 °C 16.6 °C 1011.7 hPa WNW 6.4 km/h 12.9 km/h 90 % 0.0 mm
02:24 18.3 °C 16.6 °C 1011.7 hPa WNW 6.4 km/h 12.9 km/h 90 % 0.0 mm
02:29 18.3 °C 16.6 °C 1011.7 hPa West 8.0 km/h 12.9 km/h 90 % 0.0 mm
02:34 18.3 °C 16.5 °C 1011.4 hPa WNW 9.7 km/h 12.9 km/h 89 % 0.0 mm
02:39 18.3 °C 16.5 °C 1011.4 hPa WNW 9.7 km/h 12.9 km/h 89 % 0.0 mm
02:44 18.3 °C 16.5 °C 1011.4 hPa WNW 9.7 km/h 12.9 km/h 89 % 0.0 mm
02:49 18.3 °C 16.5 °C 1011.4 hPa WNW 11.3 km/h 12.9 km/h 89 % 0.0 mm
02:54 18.3 °C 16.5 °C 1011.4 hPa NW 6.4 km/h 16.1 km/h 89 % 0.0 mm
02:59 18.3 °C 16.5 °C 1011.4 hPa NNW 8.0 km/h 16.1 km/h 89 % 0.0 mm
03:04 18.3 °C 16.3 °C 1011.4 hPa WNW 6.4 km/h 12.9 km/h 88 % 0.0 mm
03:09 18.3 °C 16.3 °C 1011.4 hPa NNW 4.8 km/h 12.9 km/h 88 % 0.0 mm
03:14 18.3 °C 16.3 °C 1011.4 hPa WNW 6.4 km/h 11.3 km/h 88 % 0.0 mm
03:19 18.3 °C 16.3 °C 1011.4 hPa NW 8.0 km/h 11.3 km/h 88 % 0.0 mm
03:24 18.3 °C 16.3 °C 1011.4 hPa WNW 6.4 km/h 11.3 km/h 88 % 0.0 mm
03:29 18.2 °C 16.2 °C 1011.4 hPa NW 4.8 km/h 11.3 km/h 88 % 0.0 mm
03:34 18.2 °C 16.2 °C 1011.1 hPa WNW 9.7 km/h 11.3 km/h 88 % 0.0 mm
03:39 18.2 °C 16.2 °C 1011.4 hPa WNW 12.9 km/h 12.9 km/h 88 % 0.0 mm
03:44 18.2 °C 16.2 °C 1011.1 hPa WNW 9.7 km/h 12.9 km/h 88 % 0.0 mm
03:49 18.1 °C 16.1 °C 1011.1 hPa NW 6.4 km/h 12.9 km/h 88 % 0.0 mm
03:54 18.1 °C 16.1 °C 1011.1 hPa NW 9.7 km/h 12.9 km/h 88 % 0.0 mm
03:59 18.1 °C 16.1 °C 1011.1 hPa WNW 8.0 km/h 12.9 km/h 88 % 0.0 mm
04:04 18.1 °C 16.3 °C 1011.1 hPa WNW 9.7 km/h 12.9 km/h 89 % 0.0 mm
04:09 18.0 °C 16.2 °C 1011.1 hPa NW 8.0 km/h 12.9 km/h 89 % 0.0 mm
04:14 18.0 °C 16.2 °C 1011.1 hPa WNW 6.4 km/h 16.1 km/h 89 % 0.0 mm
04:19 18.0 °C 16.2 °C 1011.1 hPa WNW 9.7 km/h 16.1 km/h 89 % 0.0 mm
04:24 17.9 °C 16.1 °C 1011.1 hPa WNW 6.4 km/h 12.9 km/h 89 % 0.0 mm
04:29 17.9 °C 16.1 °C 1011.1 hPa NW 6.4 km/h 12.9 km/h 89 % 0.0 mm
04:34 17.9 °C 16.1 °C 1011.1 hPa WNW 6.4 km/h 12.9 km/h 89 % 0.0 mm
04:39 17.8 °C 16.1 °C 1011.1 hPa WNW 8.0 km/h 12.9 km/h 90 % 0.0 mm
04:44 17.8 °C 16.0 °C 1011.1 hPa NW 8.0 km/h 9.7 km/h 89 % 0.0 mm
04:46 17.9 °C 16.1 °C 1011.1 hPa NW 3.2 km/h 9.7 km/h 89 % 0.0 mm
04:52 17.9 °C 16.1 °C 1011.1 hPa WNW 6.4 km/h 9.7 km/h 89 % 0.0 mm
04:57 18.0 °C 16.2 °C 1011.1 hPa WNW 8.0 km/h 9.7 km/h 89 % 0.0 mm
05:02 18.1 °C 16.1 °C 1011.1 hPa WNW 4.8 km/h 12.9 km/h 88 % 0.0 mm
05:07 18.1 °C 16.1 °C 1011.1 hPa WNW 6.4 km/h 12.9 km/h 88 % 0.0 mm
05:12 18.1 °C 15.9 °C 1011.1 hPa NW 9.7 km/h 12.9 km/h 87 % 0.0 mm
05:17 18.1 °C 15.9 °C 1011.1 hPa NW 9.7 km/h 19.3 km/h 87 % 0.0 mm
05:22 18.1 °C 15.9 °C 1011.1 hPa WNW 9.7 km/h 19.3 km/h 87 % 0.0 mm
05:27 18.1 °C 15.9 °C 1011.1 hPa West 12.9 km/h 19.3 km/h 87 % 0.0 mm
05:32 18.1 °C 15.9 °C 1011.1 hPa WNW 11.3 km/h 17.7 km/h 87 % 0.0 mm
05:37 17.9 °C 15.7 °C 1011.4 hPa WNW 8.0 km/h 17.7 km/h 87 % 0.0 mm
05:42 17.8 °C 15.8 °C 1011.4 hPa WNW 8.0 km/h 14.5 km/h 88 % 0.0 mm
05:47 17.2 °C 14.8 °C 1011.4 hPa NNW 6.4 km/h 14.5 km/h 86 % 0.0 mm
05:52 17.2 °C 14.8 °C 1011.4 hPa WNW 6.4 km/h 14.5 km/h 86 % 0.0 mm
05:57 17.1 °C 14.7 °C 1011.4 hPa NW 9.7 km/h 14.5 km/h 86 % 0.0 mm
06:02 17.1 °C 14.7 °C 1011.4 hPa WNW 6.4 km/h 12.9 km/h 86 % 0.0 mm
06:07 17.6 °C 15.8 °C 1011.4 hPa WNW 4.8 km/h 12.9 km/h 89 % 0.0 mm
06:12 17.5 °C 15.7 °C 1011.4 hPa WNW 6.4 km/h 11.3 km/h 89 % 0.0 mm
06:17 17.7 °C 15.9 °C 1011.4 hPa NW 4.8 km/h 11.3 km/h 89 % 0.0 mm
06:22 17.9 °C 16.1 °C 1011.4 hPa WNW 6.4 km/h 11.3 km/h 89 % 0.0 mm
06:27 18.2 °C 16.0 °C 1011.4 hPa WNW 6.4 km/h 11.3 km/h 87 % 0.0 mm
06:32 18.4 °C 16.2 °C 1011.7 hPa WNW 6.4 km/h 11.3 km/h 87 % 0.0 mm
06:37 18.6 °C 16.2 °C 1011.7 hPa NW 8.0 km/h 12.9 km/h 86 % 0.0 mm
06:42 18.8 °C 16.2 °C 1011.4 hPa WNW 4.8 km/h 12.9 km/h 85 % 0.0 mm
06:47 18.9 °C 16.3 °C 1011.4 hPa WNW 6.4 km/h 12.9 km/h 85 % 0.0 mm
06:52 19.1 °C 16.5 °C 1011.4 hPa WNW 3.2 km/h 12.9 km/h 85 % 0.0 mm
06:57 19.3 °C 16.5 °C 1011.4 hPa WSW 6.4 km/h 12.9 km/h 84 % 0.0 mm
07:02 19.5 °C 16.7 °C 1011.4 hPa WNW 3.2 km/h 9.7 km/h 84 % 0.0 mm
07:07 19.5 °C 16.3 °C 1011.4 hPa NW 6.4 km/h 9.7 km/h 82 % 0.0 mm
07:12 19.6 °C 16.6 °C 1011.7 hPa West 8.0 km/h 9.7 km/h 83 % 0.0 mm
07:17 19.7 °C 16.5 °C 1011.7 hPa WNW 6.4 km/h 11.3 km/h 82 % 0.0 mm
07:22 19.8 °C 16.6 °C 1011.7 hPa West 3.2 km/h 14.5 km/h 82 % 0.0 mm
07:27 20.1 °C 16.9 °C 1011.7 hPa WNW 11.3 km/h 14.5 km/h 82 % 0.0 mm
07:32 20.3 °C 16.5 °C 1011.7 hPa West 11.3 km/h 14.5 km/h 79 % 0.0 mm
07:37 20.3 °C 16.5 °C 1011.7 hPa WSW 3.2 km/h 14.5 km/h 79 % 0.0 mm
07:42 20.3 °C 16.5 °C 1011.7 hPa WSW 3.2 km/h 14.5 km/h 79 % 0.0 mm
07:47 20.4 °C 16.6 °C 1011.7 hPa West 3.2 km/h 14.5 km/h 79 % 0.0 mm
07:52 20.5 °C 16.7 °C 1011.7 hPa WSW 4.8 km/h 14.5 km/h 79 % 0.0 mm
07:55 20.4 °C 16.4 °C 1011.7 hPa NW 3.2 km/h 14.5 km/h 78 % 0.0 mm
08:00 20.4 °C 16.6 °C 1011.7 hPa West 4.8 km/h 14.5 km/h 79 % 0.0 mm
08:05 20.4 °C 16.6 °C 1011.7 hPa West 4.8 km/h 11.3 km/h 79 % 0.0 mm
08:10 20.7 °C 16.9 °C 1011.7 hPa SW 12.9 km/h 14.5 km/h 79 % 0.0 mm
08:15 20.8 °C 16.8 °C 1011.7 hPa SW 9.7 km/h 16.1 km/h 78 % 0.0 mm
08:20 20.8 °C 16.6 °C 1011.7 hPa SW 4.8 km/h 16.1 km/h 77 % 0.0 mm
08:25 20.9 °C 16.9 °C 1011.7 hPa West 4.8 km/h 14.5 km/h 78 % 0.0 mm
08:30 21.1 °C 17.1 °C 1011.7 hPa SSW 8.0 km/h 14.5 km/h 78 % 0.0 mm
08:35 21.3 °C 17.3 °C 1011.7 hPa Calm   14.5 km/h 78 % 0.0 mm
08:40 21.6 °C 17.4 °C 1011.7 hPa South 1.6 km/h 14.5 km/h 77 % 0.0 mm
08:45 22.1 °C 17.5 °C 1011.7 hPa NNW 4.8 km/h 14.5 km/h 75 % 0.0 mm
08:50 22.3 °C 17.2 °C 1011.7 hPa West 17.7 km/h 17.7 km/h 73 % 0.0 mm
08:55 22.4 °C 17.1 °C 1011.7 hPa West 11.3 km/h 12.9 km/h 72 % 0.0 mm
09:00 22.4 °C 17.1 °C 1011.7 hPa WNW 11.3 km/h 12.9 km/h 72 % 0.0 mm
09:05 22.4 °C 17.1 °C 1011.7 hPa WNW 8.0 km/h 19.3 km/h 72 % 0.0 mm
09:10 22.6 °C 17.3 °C 1011.7 hPa WSW 3.2 km/h 17.7 km/h 72 % 0.0 mm
09:15 22.6 °C 17.3 °C 1011.4 hPa SW 8.0 km/h 16.1 km/h 72 % 0.0 mm
09:20 22.7 °C 16.7 °C 1011.4 hPa SW 11.3 km/h 14.5 km/h 69 % 0.0 mm
09:25 22.8 °C 17.0 °C 1011.7 hPa WNW 8.0 km/h 14.5 km/h 70 % 0.0 mm
09:30 23.0 °C 16.8 °C 1011.4 hPa NW 6.4 km/h 14.5 km/h 68 % 0.0 mm
09:35 22.8 °C 16.8 °C 1011.4 hPa West 6.4 km/h 14.5 km/h 69 % 0.0 mm
09:40 22.8 °C 17.0 °C 1011.4 hPa West 9.7 km/h 14.5 km/h 70 % 0.0 mm
09:45 23.1 °C 17.3 °C 1011.1 hPa South 12.9 km/h 14.5 km/h 70 % 0.0 mm
09:50 23.4 °C 17.8 °C 1011.1 hPa SW 6.4 km/h 14.5 km/h 71 % 0.0 mm
09:55 23.6 °C 17.3 °C 1011.1 hPa WSW 9.7 km/h 17.7 km/h 68 % 0.0 mm
10:00 23.8 °C 17.1 °C 1011.1 hPa SSW 12.9 km/h 17.7 km/h 66 % 0.0 mm
10:06 23.7 °C 16.7 °C 1011.1 hPa SSW 4.8 km/h 17.7 km/h 65 % 0.0 mm
10:11 23.4 °C 16.9 °C 1011.4 hPa WNW 4.8 km/h 17.7 km/h 67 % 0.0 mm
10:16 23.2 °C 17.0 °C 1011.4 hPa West 12.9 km/h 17.7 km/h 68 % 0.0 mm
10:21 23.1 °C 16.6 °C 1011.4 hPa SW 11.3 km/h 17.7 km/h 67 % 0.0 mm
10:26 23.0 °C 16.8 °C 1011.4 hPa WSW 9.7 km/h 16.1 km/h 68 % 0.0 mm
10:31 22.9 °C 16.7 °C 1011.7 hPa SSW 11.3 km/h 16.1 km/h 68 % 0.0 mm
10:36 23.0 °C 16.8 °C 1011.4 hPa SW 3.2 km/h 16.1 km/h 68 % 0.0 mm
10:41 23.2 °C 17.2 °C 1011.4 hPa WNW 4.8 km/h 16.1 km/h 69 % 0.0 mm
10:46 23.7 °C 17.7 °C 1011.4 hPa South 3.2 km/h 14.5 km/h 69 % 0.0 mm
10:51 24.4 °C 17.6 °C 1011.1 hPa WNW 1.6 km/h 9.7 km/h 66 % 0.0 mm
10:56 24.3 °C 16.6 °C 1011.1 hPa NNW 8.0 km/h 16.1 km/h 62 % 0.0 mm
11:01 23.9 °C 16.7 °C 1011.4 hPa West 6.4 km/h 16.1 km/h 64 % 0.0 mm
11:06 23.6 °C 16.4 °C 1011.4 hPa SW 3.2 km/h 16.1 km/h 64 % 0.0 mm
11:11 22.9 °C 16.4 °C 1011.4 hPa WNW 4.8 km/h 12.9 km/h 67 % 0.0 mm
11:16 22.8 °C 16.4 °C 1011.4 hPa WNW 8.0 km/h 12.9 km/h 67 % 0.0 mm
11:21 22.8 °C 16.4 °C 1011.4 hPa SW 4.8 km/h 17.7 km/h 67 % 0.0 mm
11:26 24.2 °C 17.0 °C 1011.4 hPa West 3.2 km/h 17.7 km/h 64 % 0.0 mm
11:31 24.3 °C 17.5 °C 1011.4 hPa SW 6.4 km/h 17.7 km/h 66 % 0.0 mm
11:36 25.2 °C 17.1 °C 1011.1 hPa SW 12.9 km/h 14.5 km/h 61 % 0.0 mm
11:41 25.3 °C 17.2 °C 1011.1 hPa SW 8.0 km/h 14.5 km/h 61 % 0.0 mm
11:46 24.9 °C 16.3 °C 1011.1 hPa WSW 6.4 km/h 19.3 km/h 59 % 0.0 mm
11:51 24.6 °C 16.8 °C 1011.1 hPa SSW 8.0 km/h 19.3 km/h 62 % 0.0 mm
11:56 23.9 °C 16.2 °C 1011.4 hPa WSW 6.4 km/h 19.3 km/h 62 % 0.0 mm
12:01 23.7 °C 16.5 °C 1011.4 hPa SSW 4.8 km/h 19.3 km/h 64 % 0.0 mm
12:06 25.1 °C 17.8 °C 1011.1 hPa SSW 9.7 km/h 19.3 km/h 64 % 0.0 mm
12:07 25.1 °C 17.8 °C 1011.1 hPa SSW 9.7 km/h 19.3 km/h 64 % 0.0 mm
12:12 25.3 °C 17.0 °C 1011.1 hPa SSW 9.7 km/h 14.5 km/h 60 % 0.0 mm
12:17 25.0 °C 17.0 °C 1011.1 hPa WSW 6.4 km/h 14.5 km/h 61 % 0.0 mm
12:22 25.3 °C 16.7 °C 1011.1 hPa SSW 4.8 km/h 14.5 km/h 59 % 0.0 mm
12:27 24.6 °C 15.8 °C 1011.1 hPa West 1.6 km/h 14.5 km/h 58 % 0.0 mm
12:32 24.8 °C 16.8 °C 1011.1 hPa West 3.2 km/h 14.5 km/h 61 % 0.0 mm
12:37 25.9 °C 16.7 °C 1010.7 hPa South 4.8 km/h 14.5 km/h 57 % 0.0 mm
12:42 25.7 °C 15.7 °C 1011.1 hPa SW 3.2 km/h 16.1 km/h 54 % 0.0 mm
12:47 25.1 °C 16.0 °C 1011.1 hPa WNW 3.2 km/h 16.1 km/h 57 % 0.0 mm
12:52 25.3 °C 17.5 °C 1011.1 hPa WNW 1.6 km/h 16.1 km/h 62 % 0.0 mm
12:57 26.3 °C 16.0 °C 1010.7 hPa SW 12.9 km/h 16.1 km/h 53 % 0.0 mm
13:02 27.1 °C 15.5 °C 1010.7 hPa SW 6.4 km/h 16.1 km/h 49 % 0.0 mm
13:07 27.0 °C 15.7 °C 1010.7 hPa West 11.3 km/h 24.1 km/h 50 % 0.0 mm
13:12 27.4 °C 16.1 °C 1010.4 hPa NNW 9.7 km/h 19.3 km/h 50 % 0.0 mm
13:17 27.1 °C 15.1 °C 1010.4 hPa WSW 11.3 km/h 19.3 km/h 48 % 0.0 mm
13:22 26.9 °C 15.3 °C 1010.7 hPa NW 4.8 km/h 19.3 km/h 49 % 0.0 mm
13:27 27.7 °C 15.7 °C 1010.4 hPa SSW 3.2 km/h 19.3 km/h 48 % 0.0 mm
13:32 27.1 °C 14.8 °C 1010.4 hPa West 4.8 km/h 19.3 km/h 47 % 0.0 mm
13:37 26.1 °C 14.9 °C 1010.7 hPa SW 9.7 km/h 14.5 km/h 50 % 0.0 mm
13:42 26.2 °C 15.9 °C 1010.7 hPa WSW 3.2 km/h 17.7 km/h 53 % 0.0 mm
13:48 26.6 °C 15.6 °C 1010.4 hPa WSW 1.6 km/h 17.7 km/h 51 % 0.0 mm
13:53 27.3 °C 17.2 °C 1010.4 hPa West 12.9 km/h 17.7 km/h 54 % 0.0 mm
13:58 27.1 °C 16.7 °C 1010.4 hPa NW 9.7 km/h 17.7 km/h 53 % 0.0 mm
14:03 26.9 °C 16.2 °C 1010.4 hPa WNW 3.2 km/h 22.5 km/h 52 % 0.0 mm
14:08 26.6 °C 15.6 °C 1010.4 hPa SW 11.3 km/h 22.5 km/h 51 % 0.0 mm
Leobendorf Wetter
Datensammlung von Weather Underground - 2 mb

Script entwickelt von  Jim McMurry - jmcmurry@mwt.net Angepasst für das Template von  Wim van der Kuil - Leuven-Template.eu

Sie finden unser Wetter-Infos auch auf:

UK Metoffice

European Weather Network

Weather Underground

AWEKAS

Citizen Weather Observer Program (CWOP)

Von uns verwendete Ausrüstung:

Wetterstation
Davis VP2

Wetterprogramm
Meteohub

Davis VP2

Meteohub